sensor_id;sensor_type;location;lat;lon;timestamp;P1;durP1;ratioP1;P2;durP2;ratioP2
59492;SDS011;45497;43.996;22.876;2022-07-29T00:01:47;4.03;;;3.10;;
59492;SDS011;45497;43.996;22.876;2022-07-29T00:04:13;3.87;;;3.03;;
59492;SDS011;45497;43.996;22.876;2022-07-29T00:06:38;3.83;;;2.80;;
59492;SDS011;45497;43.996;22.876;2022-07-29T00:09:04;3.58;;;3.00;;
59492;SDS011;45497;43.996;22.876;2022-07-29T00:11:30;3.20;;;2.90;;
59492;SDS011;45497;43.996;22.876;2022-07-29T00:13:56;5.18;;;2.83;;
59492;SDS011;45497;43.996;22.876;2022-07-29T00:16:21;4.40;;;3.17;;
59492;SDS011;45497;43.996;22.876;2022-07-29T00:18:48;3.88;;;3.10;;
59492;SDS011;45497;43.996;22.876;2022-07-29T00:21:15;3.53;;;3.03;;
59492;SDS011;45497;43.996;22.876;2022-07-29T00:23:40;4.50;;;2.80;;
59492;SDS011;45497;43.996;22.876;2022-07-29T00:26:06;3.92;;;3.17;;
59492;SDS011;45497;43.996;22.876;2022-07-29T00:28:31;3.40;;;3.10;;
59492;SDS011;45497;43.996;22.876;2022-07-29T00:30:57;3.57;;;3.10;;
59492;SDS011;45497;43.996;22.876;2022-07-29T00:33:22;6.82;;;4.03;;
59492;SDS011;45497;43.996;22.876;2022-07-29T00:35:48;3.60;;;3.30;;
59492;SDS011;45497;43.996;22.876;2022-07-29T00:38:15;4.13;;;3.22;;
59492;SDS011;45497;43.996;22.876;2022-07-29T00:40:44;4.10;;;3.40;;
59492;SDS011;45497;43.996;22.876;2022-07-29T00:43:10;3.58;;;3.20;;
59492;SDS011;45497;43.996;22.876;2022-07-29T00:45:36;3.55;;;3.15;;
59492;SDS011;45497;43.996;22.876;2022-07-29T00:48:02;3.60;;;3.10;;
59492;SDS011;45497;43.996;22.876;2022-07-29T00:50:29;3.17;;;2.70;;
59492;SDS011;45497;43.996;22.876;2022-07-29T00:52:56;4.05;;;3.20;;
59492;SDS011;45497;43.996;22.876;2022-07-29T00:55:21;3.77;;;3.00;;
59492;SDS011;45497;43.996;22.876;2022-07-29T00:57:47;4.40;;;3.17;;
59492;SDS011;45497;43.996;22.876;2022-07-29T01:00:18;3.47;;;3.17;;
59492;SDS011;45497;43.996;22.876;2022-07-29T01:02:45;5.35;;;3.10;;
59492;SDS011;45497;43.996;22.876;2022-07-29T01:05:18;4.07;;;3.40;;
59492;SDS011;45497;43.996;22.876;2022-07-29T01:07:47;4.07;;;3.40;;
59492;SDS011;45497;43.996;22.876;2022-07-29T01:10:15;4.63;;;2.97;;
59492;SDS011;45497;43.996;22.876;2022-07-29T01:12:43;4.15;;;3.45;;
59492;SDS011;45497;43.996;22.876;2022-07-29T01:15:11;3.92;;;2.95;;
59492;SDS011;45497;43.996;22.876;2022-07-29T01:29:17;3.40;;;2.88;;
59492;SDS011;45497;43.996;22.876;2022-07-29T01:31:54;4.70;;;2.70;;
59492;SDS011;45497;43.996;22.876;2022-07-29T01:34:36;3.72;;;2.90;;
59492;SDS011;45497;43.996;22.876;2022-07-29T01:40:04;4.88;;;3.13;;
59492;SDS011;45497;43.996;22.876;2022-07-29T01:42:38;5.40;;;3.25;;
59492;SDS011;45497;43.996;22.876;2022-07-29T01:45:10;3.97;;;3.22;;
59492;SDS011;45497;43.996;22.876;2022-07-29T01:47:43;3.90;;;3.10;;
59492;SDS011;45497;43.996;22.876;2022-07-29T01:50:16;4.07;;;3.10;;
59492;SDS011;45497;43.996;22.876;2022-07-29T01:52:58;3.63;;;3.10;;
59492;SDS011;45497;43.996;22.876;2022-07-29T01:55:26;3.35;;;3.05;;
59492;SDS011;45497;43.996;22.876;2022-07-29T01:57:56;4.97;;;3.63;;
59492;SDS011;45497;43.996;22.876;2022-07-29T02:00:23;3.67;;;3.20;;
59492;SDS011;45497;43.996;22.876;2022-07-29T02:02:51;4.40;;;3.35;;
59492;SDS011;45497;43.996;22.876;2022-07-29T02:05:20;6.13;;;3.15;;
59492;SDS011;45497;43.996;22.876;2022-07-29T02:07:48;3.70;;;3.10;;
59492;SDS011;45497;43.996;22.876;2022-07-29T02:10:16;3.35;;;3.03;;
59492;SDS011;45497;43.996;22.876;2022-07-29T02:12:47;3.50;;;2.90;;
59492;SDS011;45497;43.996;22.876;2022-07-29T02:15:13;4.22;;;3.15;;
59492;SDS011;45497;43.996;22.876;2022-07-29T02:17:42;5.20;;;3.08;;
59492;SDS011;45497;43.996;22.876;2022-07-29T02:20:11;5.22;;;3.20;;
59492;SDS011;45497;43.996;22.876;2022-07-29T02:22:39;6.38;;;3.33;;
59492;SDS011;45497;43.996;22.876;2022-07-29T02:25:06;3.67;;;3.00;;
59492;SDS011;45497;43.996;22.876;2022-07-29T02:27:34;4.77;;;3.40;;
59492;SDS011;45497;43.996;22.876;2022-07-29T02:30:00;4.53;;;3.03;;
59492;SDS011;45497;43.996;22.876;2022-07-29T02:32:28;4.20;;;3.00;;
59492;SDS011;45497;43.996;22.876;2022-07-29T02:34:55;3.20;;;2.90;;
59492;SDS011;45497;43.996;22.876;2022-07-29T02:37:22;5.40;;;3.50;;
59492;SDS011;45497;43.996;22.876;2022-07-29T02:39:49;3.30;;;3.00;;
59492;SDS011;45497;43.996;22.876;2022-07-29T02:42:18;4.97;;;3.25;;
59492;SDS011;45497;43.996;22.876;2022-07-29T02:44:47;5.90;;;3.53;;
59492;SDS011;45497;43.996;22.876;2022-07-29T02:47:33;4.53;;;3.35;;
59492;SDS011;45497;43.996;22.876;2022-07-29T02:50:14;3.70;;;3.20;;
59492;SDS011;45497;43.996;22.876;2022-07-29T02:53:17;8.20;;;4.13;;
59492;SDS011;45497;43.996;22.876;2022-07-29T02:55:43;4.70;;;3.80;;
59492;SDS011;45497;43.996;22.876;2022-07-29T02:58:24;6.32;;;3.92;;
59492;SDS011;45497;43.996;22.876;2022-07-29T03:00:55;3.90;;;3.50;;
59492;SDS011;45497;43.996;22.876;2022-07-29T03:03:24;3.70;;;3.40;;
59492;SDS011;45497;43.996;22.876;2022-07-29T03:05:55;5.20;;;3.57;;
59492;SDS011;45497;43.996;22.876;2022-07-29T03:08:22;5.47;;;3.65;;
59492;SDS011;45497;43.996;22.876;2022-07-29T03:10:49;6.93;;;4.07;;
59492;SDS011;45497;43.996;22.876;2022-07-29T03:13:16;7.28;;;4.18;;
59492;SDS011;45497;43.996;22.876;2022-07-29T03:15:42;5.80;;;4.13;;
59492;SDS011;45497;43.996;22.876;2022-07-29T03:18:09;6.72;;;4.20;;
59492;SDS011;45497;43.996;22.876;2022-07-29T03:20:36;5.47;;;4.18;;
59492;SDS011;45497;43.996;22.876;2022-07-29T03:23:03;6.60;;;4.30;;
59492;SDS011;45497;43.996;22.876;2022-07-29T03:25:29;6.35;;;4.50;;
59492;SDS011;45497;43.996;22.876;2022-07-29T03:27:55;7.57;;;4.57;;
59492;SDS011;45497;43.996;22.876;2022-07-29T03:30:21;8.02;;;4.80;;
59492;SDS011;45497;43.996;22.876;2022-07-29T03:32:48;7.88;;;5.40;;
59492;SDS011;45497;43.996;22.876;2022-07-29T03:35:14;5.28;;;4.78;;
59492;SDS011;45497;43.996;22.876;2022-07-29T03:37:42;8.35;;;5.10;;
59492;SDS011;45497;43.996;22.876;2022-07-29T03:40:08;5.47;;;4.85;;
59492;SDS011;45497;43.996;22.876;2022-07-29T03:42:37;6.22;;;4.97;;
59492;SDS011;45497;43.996;22.876;2022-07-29T03:45:06;9.07;;;5.40;;
59492;SDS011;45497;43.996;22.876;2022-07-29T03:47:35;6.80;;;5.15;;
59492;SDS011;45497;43.996;22.876;2022-07-29T03:50:08;7.55;;;4.75;;
59492;SDS011;45497;43.996;22.876;2022-07-29T03:52:37;9.50;;;5.47;;
59492;SDS011;45497;43.996;22.876;2022-07-29T03:55:03;8.55;;;5.40;;
59492;SDS011;45497;43.996;22.876;2022-07-29T03:57:31;8.48;;;5.20;;
59492;SDS011;45497;43.996;22.876;2022-07-29T03:59:58;8.30;;;5.15;;
59492;SDS011;45497;43.996;22.876;2022-07-29T04:02:25;6.45;;;5.00;;
59492;SDS011;45497;43.996;22.876;2022-07-29T04:04:51;10.00;;;4.93;;
59492;SDS011;45497;43.996;22.876;2022-07-29T04:07:17;9.00;;;4.72;;
59492;SDS011;45497;43.996;22.876;2022-07-29T04:09:43;8.97;;;5.17;;
59492;SDS011;45497;43.996;22.876;2022-07-29T04:12:08;8.07;;;5.27;;
59492;SDS011;45497;43.996;22.876;2022-07-29T04:14:34;8.40;;;5.32;;
59492;SDS011;45497;43.996;22.876;2022-07-29T04:17:00;8.25;;;5.53;;
59492;SDS011;45497;43.996;22.876;2022-07-29T04:19:28;11.57;;;6.30;;
59492;SDS011;45497;43.996;22.876;2022-07-29T04:21:54;12.15;;;6.50;;
59492;SDS011;45497;43.996;22.876;2022-07-29T04:24:20;13.48;;;6.03;;
59492;SDS011;45497;43.996;22.876;2022-07-29T04:26:46;9.17;;;6.00;;
59492;SDS011;45497;43.996;22.876;2022-07-29T04:29:12;8.82;;;6.28;;
59492;SDS011;45497;43.996;22.876;2022-07-29T04:31:39;6.88;;;5.80;;
59492;SDS011;45497;43.996;22.876;2022-07-29T04:34:05;10.75;;;6.68;;
59492;SDS011;45497;43.996;22.876;2022-07-29T04:36:31;10.67;;;7.03;;
59492;SDS011;45497;43.996;22.876;2022-07-29T04:38:56;9.02;;;6.93;;
59492;SDS011;45497;43.996;22.876;2022-07-29T04:41:22;8.80;;;6.70;;
59492;SDS011;45497;43.996;22.876;2022-07-29T04:43:48;8.02;;;6.70;;
59492;SDS011;45497;43.996;22.876;2022-07-29T04:46:14;7.10;;;6.37;;
59492;SDS011;45497;43.996;22.876;2022-07-29T04:48:39;9.90;;;7.45;;
59492;SDS011;45497;43.996;22.876;2022-07-29T04:51:05;9.05;;;7.07;;
59492;SDS011;45497;43.996;22.876;2022-07-29T04:53:30;11.83;;;6.97;;
59492;SDS011;45497;43.996;22.876;2022-07-29T04:55:56;9.00;;;6.80;;
59492;SDS011;45497;43.996;22.876;2022-07-29T04:58:21;10.77;;;7.23;;
59492;SDS011;45497;43.996;22.876;2022-07-29T05:00:48;8.00;;;6.93;;
59492;SDS011;45497;43.996;22.876;2022-07-29T05:03:16;9.50;;;7.10;;
59492;SDS011;45497;43.996;22.876;2022-07-29T05:05:42;7.77;;;6.80;;
59492;SDS011;45497;43.996;22.876;2022-07-29T05:08:07;8.50;;;6.85;;
59492;SDS011;45497;43.996;22.876;2022-07-29T05:10:33;9.67;;;6.87;;
59492;SDS011;45497;43.996;22.876;2022-07-29T05:13:03;8.38;;;6.88;;
59492;SDS011;45497;43.996;22.876;2022-07-29T05:15:31;10.38;;;7.15;;
59492;SDS011;45497;43.996;22.876;2022-07-29T05:17:56;8.33;;;6.87;;
59492;SDS011;45497;43.996;22.876;2022-07-29T05:20:22;10.27;;;7.03;;
59492;SDS011;45497;43.996;22.876;2022-07-29T05:22:51;11.02;;;7.45;;
59492;SDS011;45497;43.996;22.876;2022-07-29T05:25:17;8.20;;;7.20;;
59492;SDS011;45497;43.996;22.876;2022-07-29T05:27:43;9.02;;;7.78;;
59492;SDS011;45497;43.996;22.876;2022-07-29T05:30:08;12.47;;;7.87;;
59492;SDS011;45497;43.996;22.876;2022-07-29T05:32:34;9.50;;;7.47;;
59492;SDS011;45497;43.996;22.876;2022-07-29T05:35:00;9.60;;;7.60;;
59492;SDS011;45497;43.996;22.876;2022-07-29T05:37:25;7.73;;;6.90;;
59492;SDS011;45497;43.996;22.876;2022-07-29T05:39:52;9.93;;;7.53;;
59492;SDS011;45497;43.996;22.876;2022-07-29T05:42:18;11.32;;;6.60;;
59492;SDS011;45497;43.996;22.876;2022-07-29T05:45:02;8.90;;;6.18;;
59492;SDS011;45497;43.996;22.876;2022-07-29T05:47:28;7.88;;;6.20;;
59492;SDS011;45497;43.996;22.876;2022-07-29T05:49:53;8.10;;;6.27;;
59492;SDS011;45497;43.996;22.876;2022-07-29T05:52:19;8.53;;;6.17;;
59492;SDS011;45497;43.996;22.876;2022-07-29T05:54:45;7.82;;;7.07;;
59492;SDS011;45497;43.996;22.876;2022-07-29T05:57:19;9.23;;;6.83;;
59492;SDS011;45497;43.996;22.876;2022-07-29T05:59:46;8.27;;;6.88;;
59492;SDS011;45497;43.996;22.876;2022-07-29T06:02:13;7.55;;;6.70;;
59492;SDS011;45497;43.996;22.876;2022-07-29T06:04:38;10.88;;;6.30;;
59492;SDS011;45497;43.996;22.876;2022-07-29T06:07:04;8.80;;;6.57;;
59492;SDS011;45497;43.996;22.876;2022-07-29T06:09:31;10.27;;;6.80;;
59492;SDS011;45497;43.996;22.876;2022-07-29T06:11:57;10.48;;;7.97;;
59492;SDS011;45497;43.996;22.876;2022-07-29T06:14:24;8.25;;;7.03;;
59492;SDS011;45497;43.996;22.876;2022-07-29T06:16:50;8.40;;;6.82;;
59492;SDS011;45497;43.996;22.876;2022-07-29T06:19:16;9.83;;;6.20;;
59492;SDS011;45497;43.996;22.876;2022-07-29T06:21:44;7.13;;;6.37;;
59492;SDS011;45497;43.996;22.876;2022-07-29T06:24:11;6.35;;;5.82;;
59492;SDS011;45497;43.996;22.876;2022-07-29T06:26:39;7.60;;;5.83;;
59492;SDS011;45497;43.996;22.876;2022-07-29T06:29:05;7.00;;;6.03;;
59492;SDS011;45497;43.996;22.876;2022-07-29T06:31:31;6.60;;;6.00;;
59492;SDS011;45497;43.996;22.876;2022-07-29T06:33:57;6.72;;;6.00;;
59492;SDS011;45497;43.996;22.876;2022-07-29T06:36:23;7.90;;;6.00;;
59492;SDS011;45497;43.996;22.876;2022-07-29T06:38:48;6.57;;;5.97;;
59492;SDS011;45497;43.996;22.876;2022-07-29T06:41:14;6.93;;;6.30;;
59492;SDS011;45497;43.996;22.876;2022-07-29T06:43:41;6.85;;;6.22;;
59492;SDS011;45497;43.996;22.876;2022-07-29T06:46:13;6.72;;;6.03;;
59492;SDS011;45497;43.996;22.876;2022-07-29T06:48:40;7.20;;;6.22;;
59492;SDS011;45497;43.996;22.876;2022-07-29T06:51:09;6.72;;;6.03;;
59492;SDS011;45497;43.996;22.876;2022-07-29T06:53:36;7.22;;;6.60;;
59492;SDS011;45497;43.996;22.876;2022-07-29T06:56:03;7.57;;;6.65;;
59492;SDS011;45497;43.996;22.876;2022-07-29T06:58:30;7.33;;;6.57;;
59492;SDS011;45497;43.996;22.876;2022-07-29T07:00:57;7.10;;;6.40;;
59492;SDS011;45497;43.996;22.876;2022-07-29T07:03:24;9.82;;;6.63;;
59492;SDS011;45497;43.996;22.876;2022-07-29T07:05:51;8.85;;;6.28;;
59492;SDS011;45497;43.996;22.876;2022-07-29T07:08:17;7.18;;;6.47;;
59492;SDS011;45497;43.996;22.876;2022-07-29T07:10:44;7.22;;;6.57;;
59492;SDS011;45497;43.996;22.876;2022-07-29T07:13:10;7.53;;;6.90;;
59492;SDS011;45497;43.996;22.876;2022-07-29T07:15:35;7.50;;;6.80;;
59492;SDS011;45497;43.996;22.876;2022-07-29T07:18:03;7.00;;;6.40;;
59492;SDS011;45497;43.996;22.876;2022-07-29T07:20:29;7.07;;;6.50;;
59492;SDS011;45497;43.996;22.876;2022-07-29T07:22:55;7.57;;;6.65;;
59492;SDS011;45497;43.996;22.876;2022-07-29T07:25:22;8.13;;;7.35;;
59492;SDS011;45497;43.996;22.876;2022-07-29T07:27:47;8.10;;;7.30;;
59492;SDS011;45497;43.996;22.876;2022-07-29T07:30:13;10.50;;;7.70;;
59492;SDS011;45497;43.996;22.876;2022-07-29T07:32:38;7.00;;;6.30;;
59492;SDS011;45497;43.996;22.876;2022-07-29T07:35:04;8.30;;;7.50;;
59492;SDS011;45497;43.996;22.876;2022-07-29T07:37:31;7.68;;;6.88;;
59492;SDS011;45497;43.996;22.876;2022-07-29T07:39:57;9.27;;;8.48;;
59492;SDS011;45497;43.996;22.876;2022-07-29T07:42:23;8.73;;;7.93;;
59492;SDS011;45497;43.996;22.876;2022-07-29T07:44:49;11.07;;;8.48;;
59492;SDS011;45497;43.996;22.876;2022-07-29T07:47:15;10.02;;;8.40;;
59492;SDS011;45497;43.996;22.876;2022-07-29T07:49:45;10.18;;;9.27;;
59492;SDS011;45497;43.996;22.876;2022-07-29T07:52:14;9.40;;;8.00;;
59492;SDS011;45497;43.996;22.876;2022-07-29T07:55:03;10.45;;;8.73;;
59492;SDS011;45497;43.996;22.876;2022-07-29T07:57:29;11.27;;;9.13;;
59492;SDS011;45497;43.996;22.876;2022-07-29T07:59:55;10.63;;;9.63;;
59492;SDS011;45497;43.996;22.876;2022-07-29T08:02:20;9.73;;;8.73;;
59492;SDS011;45497;43.996;22.876;2022-07-29T08:04:46;9.77;;;8.50;;
59492;SDS011;45497;43.996;22.876;2022-07-29T08:07:11;8.30;;;7.50;;
59492;SDS011;45497;43.996;22.876;2022-07-29T08:09:39;13.40;;;9.63;;
59492;SDS011;45497;43.996;22.876;2022-07-29T08:12:04;9.47;;;8.43;;
59492;SDS011;45497;43.996;22.876;2022-07-29T08:14:31;10.27;;;8.40;;
59492;SDS011;45497;43.996;22.876;2022-07-29T08:16:57;13.10;;;10.03;;
59492;SDS011;45497;43.996;22.876;2022-07-29T08:19:23;9.52;;;8.63;;
59492;SDS011;45497;43.996;22.876;2022-07-29T08:21:48;10.32;;;8.80;;
59492;SDS011;45497;43.996;22.876;2022-07-29T08:24:14;9.50;;;7.80;;
59492;SDS011;45497;43.996;22.876;2022-07-29T08:26:58;10.95;;;7.53;;
59492;SDS011;45497;43.996;22.876;2022-07-29T08:29:25;9.27;;;7.00;;
59492;SDS011;45497;43.996;22.876;2022-07-29T08:31:50;7.70;;;6.90;;
59492;SDS011;45497;43.996;22.876;2022-07-29T08:34:16;7.43;;;6.70;;
59492;SDS011;45497;43.996;22.876;2022-07-29T08:36:41;7.33;;;6.50;;
59492;SDS011;45497;43.996;22.876;2022-07-29T08:39:06;7.10;;;6.40;;
59492;SDS011;45497;43.996;22.876;2022-07-29T08:41:32;7.93;;;6.50;;
59492;SDS011;45497;43.996;22.876;2022-07-29T08:43:58;8.30;;;6.33;;
59492;SDS011;45497;43.996;22.876;2022-07-29T08:46:25;7.80;;;6.50;;
59492;SDS011;45497;43.996;22.876;2022-07-29T08:48:50;8.20;;;6.45;;
59492;SDS011;45497;43.996;22.876;2022-07-29T08:51:17;7.57;;;6.77;;
59492;SDS011;45497;43.996;22.876;2022-07-29T08:53:44;9.88;;;6.72;;
59492;SDS011;45497;43.996;22.876;2022-07-29T08:57:50;7.35;;;6.55;;
59492;SDS011;45497;43.996;22.876;2022-07-29T09:00:16;7.53;;;6.70;;
59492;SDS011;45497;43.996;22.876;2022-07-29T09:02:44;10.13;;;6.80;;
59492;SDS011;45497;43.996;22.876;2022-07-29T09:05:12;8.07;;;6.97;;
59492;SDS011;45497;43.996;22.876;2022-07-29T09:07:38;7.57;;;6.87;;
59492;SDS011;45497;43.996;22.876;2022-07-29T09:10:05;7.13;;;6.40;;
59492;SDS011;45497;43.996;22.876;2022-07-29T09:12:31;8.25;;;6.78;;
59492;SDS011;45497;43.996;22.876;2022-07-29T09:14:56;7.33;;;6.70;;
59492;SDS011;45497;43.996;22.876;2022-07-29T09:20:10;9.47;;;7.20;;
59492;SDS011;45497;43.996;22.876;2022-07-29T09:22:37;8.07;;;6.60;;
59492;SDS011;45497;43.996;22.876;2022-07-29T09:25:03;7.55;;;6.63;;
59492;SDS011;45497;43.996;22.876;2022-07-29T09:27:28;7.63;;;6.93;;
59492;SDS011;45497;43.996;22.876;2022-07-29T09:30:04;7.83;;;6.87;;
59492;SDS011;45497;43.996;22.876;2022-07-29T09:34:41;7.97;;;6.60;;
59492;SDS011;45497;43.996;22.876;2022-07-29T09:37:06;7.32;;;6.43;;
59492;SDS011;45497;43.996;22.876;2022-07-29T09:39:33;7.38;;;6.68;;
59492;SDS011;45497;43.996;22.876;2022-07-29T09:42:05;11.70;;;6.57;;
59492;SDS011;45497;43.996;22.876;2022-07-29T09:44:47;8.35;;;6.30;;
59492;SDS011;45497;43.996;22.876;2022-07-29T09:48:19;8.82;;;6.30;;
59492;SDS011;45497;43.996;22.876;2022-07-29T09:50:47;10.40;;;6.50;;
59492;SDS011;45497;43.996;22.876;2022-07-29T09:56:02;7.18;;;6.55;;
59492;SDS011;45497;43.996;22.876;2022-07-29T09:58:29;8.33;;;6.13;;
59492;SDS011;45497;43.996;22.876;2022-07-29T10:00:54;7.65;;;6.50;;
59492;SDS011;45497;43.996;22.876;2022-07-29T10:03:21;7.15;;;6.45;;
59492;SDS011;45497;43.996;22.876;2022-07-29T10:06:03;8.50;;;6.18;;
59492;SDS011;45497;43.996;22.876;2022-07-29T10:08:33;8.57;;;6.28;;
59492;SDS011;45497;43.996;22.876;2022-07-29T10:11:31;8.50;;;6.60;;
59492;SDS011;45497;43.996;22.876;2022-07-29T10:13:50;8.82;;;6.32;;
59492;SDS011;45497;43.996;22.876;2022-07-29T10:16:16;7.30;;;6.03;;
59492;SDS011;45497;43.996;22.876;2022-07-29T10:18:42;7.80;;;6.20;;
59492;SDS011;45497;43.996;22.876;2022-07-29T10:21:08;9.32;;;6.10;;
59492;SDS011;45497;43.996;22.876;2022-07-29T10:23:35;9.70;;;6.40;;
59492;SDS011;45497;43.996;22.876;2022-07-29T10:26:01;8.55;;;6.20;;
59492;SDS011;45497;43.996;22.876;2022-07-29T10:28:30;7.50;;;6.00;;
59492;SDS011;45497;43.996;22.876;2022-07-29T10:31:00;7.13;;;6.10;;
59492;SDS011;45497;43.996;22.876;2022-07-29T10:33:34;6.82;;;6.10;;
59492;SDS011;45497;43.996;22.876;2022-07-29T10:36:27;6.90;;;5.93;;
59492;SDS011;45497;43.996;22.876;2022-07-29T10:42:02;8.00;;;5.72;;
59492;SDS011;45497;43.996;22.876;2022-07-29T10:44:39;8.20;;;6.25;;
59492;SDS011;45497;43.996;22.876;2022-07-29T10:47:06;7.60;;;5.82;;
59492;SDS011;45497;43.996;22.876;2022-07-29T10:49:31;6.40;;;5.80;;
59492;SDS011;45497;43.996;22.876;2022-07-29T10:51:58;8.97;;;5.97;;
59492;SDS011;45497;43.996;22.876;2022-07-29T10:57:14;10.35;;;5.97;;
59492;SDS011;45497;43.996;22.876;2022-07-29T11:10:45;6.10;;;5.50;;
59492;SDS011;45497;43.996;22.876;2022-07-29T11:13:10;6.13;;;5.43;;
59492;SDS011;45497;43.996;22.876;2022-07-29T11:16:09;7.03;;;5.70;;
59492;SDS011;45497;43.996;22.876;2022-07-29T11:18:30;7.93;;;6.07;;
59492;SDS011;45497;43.996;22.876;2022-07-29T11:20:55;7.05;;;6.05;;
59492;SDS011;45497;43.996;22.876;2022-07-29T11:23:30;6.57;;;5.93;;
59492;SDS011;45497;43.996;22.876;2022-07-29T11:28:59;7.97;;;6.10;;
59492;SDS011;45497;43.996;22.876;2022-07-29T11:31:42;8.27;;;6.10;;
59492;SDS011;45497;43.996;22.876;2022-07-29T11:39:39;6.50;;;5.90;;
59492;SDS011;45497;43.996;22.876;2022-07-29T11:44:59;7.87;;;6.27;;
59492;SDS011;45497;43.996;22.876;2022-07-29T11:47:30;8.07;;;6.33;;
59492;SDS011;45497;43.996;22.876;2022-07-29T11:49:57;6.57;;;5.88;;
59492;SDS011;45497;43.996;22.876;2022-07-29T11:52:32;8.90;;;5.68;;
59492;SDS011;45497;43.996;22.876;2022-07-29T11:55:03;6.82;;;5.80;;
59492;SDS011;45497;43.996;22.876;2022-07-29T11:57:31;7.60;;;5.80;;
59492;SDS011;45497;43.996;22.876;2022-07-29T11:59:58;8.95;;;6.25;;
59492;SDS011;45497;43.996;22.876;2022-07-29T12:02:25;7.20;;;5.90;;
59492;SDS011;45497;43.996;22.876;2022-07-29T12:05:03;6.50;;;5.72;;
59492;SDS011;45497;43.996;22.876;2022-07-29T12:07:30;8.13;;;5.93;;
59492;SDS011;45497;43.996;22.876;2022-07-29T12:09:57;8.55;;;5.82;;
59492;SDS011;45497;43.996;22.876;2022-07-29T12:12:23;8.23;;;5.78;;
59492;SDS011;45497;43.996;22.876;2022-07-29T12:14:48;6.60;;;5.80;;
59492;SDS011;45497;43.996;22.876;2022-07-29T12:17:27;10.35;;;5.88;;
59492;SDS011;45497;43.996;22.876;2022-07-29T12:19:58;6.15;;;5.53;;
59492;SDS011;45497;43.996;22.876;2022-07-29T12:25:05;7.32;;;5.82;;
59492;SDS011;45497;43.996;22.876;2022-07-29T12:27:32;7.18;;;6.15;;
59492;SDS011;45497;43.996;22.876;2022-07-29T12:29:59;7.37;;;5.90;;
59492;SDS011;45497;43.996;22.876;2022-07-29T12:32:45;6.00;;;5.40;;
59492;SDS011;45497;43.996;22.876;2022-07-29T12:35:17;8.77;;;6.10;;
59492;SDS011;45497;43.996;22.876;2022-07-29T12:37:45;7.43;;;5.63;;
59492;SDS011;45497;43.996;22.876;2022-07-29T12:40:17;6.95;;;5.63;;
59492;SDS011;45497;43.996;22.876;2022-07-29T12:45:34;7.57;;;6.00;;
59492;SDS011;45497;43.996;22.876;2022-07-29T12:48:04;7.55;;;5.82;;
59492;SDS011;45497;43.996;22.876;2022-07-29T12:50:31;6.35;;;5.75;;
59492;SDS011;45497;43.996;22.876;2022-07-29T12:53:12;6.50;;;5.35;;
59492;SDS011;45497;43.996;22.876;2022-07-29T12:55:39;6.13;;;5.60;;
59492;SDS011;45497;43.996;22.876;2022-07-29T12:58:09;6.47;;;5.60;;
59492;SDS011;45497;43.996;22.876;2022-07-29T13:00:34;8.02;;;5.70;;
59492;SDS011;45497;43.996;22.876;2022-07-29T13:03:00;6.27;;;5.53;;
59492;SDS011;45497;43.996;22.876;2022-07-29T13:05:44;6.60;;;6.00;;
59492;SDS011;45497;43.996;22.876;2022-07-29T13:09:15;6.85;;;5.70;;
59492;SDS011;45497;43.996;22.876;2022-07-29T13:14:13;6.38;;;5.78;;
59492;SDS011;45497;43.996;22.876;2022-07-29T13:19:43;6.60;;;5.88;;
59492;SDS011;45497;43.996;22.876;2022-07-29T13:22:14;8.00;;;5.90;;
59492;SDS011;45497;43.996;22.876;2022-07-29T13:27:27;8.82;;;5.75;;
59492;SDS011;45497;43.996;22.876;2022-07-29T13:29:55;8.55;;;5.70;;
59492;SDS011;45497;43.996;22.876;2022-07-29T13:32:22;7.18;;;5.90;;
59492;SDS011;45497;43.996;22.876;2022-07-29T13:34:49;6.38;;;5.78;;
59492;SDS011;45497;43.996;22.876;2022-07-29T13:37:14;9.90;;;6.30;;
59492;SDS011;45497;43.996;22.876;2022-07-29T13:39:41;7.95;;;6.10;;
59492;SDS011;45497;43.996;22.876;2022-07-29T13:42:07;6.82;;;5.80;;
59492;SDS011;45497;43.996;22.876;2022-07-29T13:44:33;7.68;;;5.60;;
59492;SDS011;45497;43.996;22.876;2022-07-29T13:46:59;6.05;;;5.43;;
59492;SDS011;45497;43.996;22.876;2022-07-29T13:49:25;8.00;;;6.00;;
59492;SDS011;45497;43.996;22.876;2022-07-29T13:51:52;6.68;;;5.78;;
59492;SDS011;45497;43.996;22.876;2022-07-29T13:54:18;6.07;;;5.47;;
59492;SDS011;45497;43.996;22.876;2022-07-29T13:56:43;6.63;;;5.70;;
59492;SDS011;45497;43.996;22.876;2022-07-29T13:59:09;6.70;;;5.90;;
59492;SDS011;45497;43.996;22.876;2022-07-29T14:01:34;9.33;;;5.70;;
59492;SDS011;45497;43.996;22.876;2022-07-29T14:04:00;6.70;;;5.57;;
59492;SDS011;45497;43.996;22.876;2022-07-29T14:06:26;6.65;;;6.05;;
59492;SDS011;45497;43.996;22.876;2022-07-29T14:08:51;7.35;;;5.50;;
59492;SDS011;45497;43.996;22.876;2022-07-29T14:11:17;6.00;;;5.40;;
59492;SDS011;45497;43.996;22.876;2022-07-29T14:13:42;5.93;;;5.33;;
59492;SDS011;45497;43.996;22.876;2022-07-29T14:16:08;6.07;;;5.43;;
59492;SDS011;45497;43.996;22.876;2022-07-29T14:18:33;8.53;;;5.70;;
59492;SDS011;45497;43.996;22.876;2022-07-29T14:20:59;6.10;;;5.60;;
59492;SDS011;45497;43.996;22.876;2022-07-29T14:23:25;6.17;;;5.40;;
59492;SDS011;45497;43.996;22.876;2022-07-29T14:25:50;6.10;;;5.50;;
59492;SDS011;45497;43.996;22.876;2022-07-29T14:28:16;6.28;;;5.68;;
59492;SDS011;45497;43.996;22.876;2022-07-29T14:30:42;6.00;;;5.40;;
59492;SDS011;45497;43.996;22.876;2022-07-29T14:33:08;6.38;;;5.68;;
59492;SDS011;45497;43.996;22.876;2022-07-29T14:35:33;6.60;;;5.63;;
59492;SDS011;45497;43.996;22.876;2022-07-29T14:37:59;6.00;;;5.33;;
59492;SDS011;45497;43.996;22.876;2022-07-29T14:40:24;7.20;;;5.00;;
59492;SDS011;45497;43.996;22.876;2022-07-29T14:42:50;7.90;;;5.45;;
59492;SDS011;45497;43.996;22.876;2022-07-29T14:45:16;6.50;;;5.30;;
59492;SDS011;45497;43.996;22.876;2022-07-29T14:47:41;6.37;;;5.23;;
59492;SDS011;45497;43.996;22.876;2022-07-29T14:50:07;7.53;;;5.93;;
59492;SDS011;45497;43.996;22.876;2022-07-29T14:52:33;6.63;;;5.15;;
59492;SDS011;45497;43.996;22.876;2022-07-29T14:54:59;6.00;;;5.40;;
59492;SDS011;45497;43.996;22.876;2022-07-29T14:57:24;5.93;;;5.33;;
59492;SDS011;45497;43.996;22.876;2022-07-29T14:59:50;8.33;;;5.90;;
59492;SDS011;45497;43.996;22.876;2022-07-29T15:02:15;7.30;;;5.50;;
59492;SDS011;45497;43.996;22.876;2022-07-29T15:04:41;6.23;;;5.53;;
59492;SDS011;45497;43.996;22.876;2022-07-29T15:07:07;10.57;;;6.67;;
59492;SDS011;45497;43.996;22.876;2022-07-29T15:09:33;7.03;;;5.78;;
59492;SDS011;45497;43.996;22.876;2022-07-29T15:11:59;9.17;;;6.17;;
59492;SDS011;45497;43.996;22.876;2022-07-29T15:14:24;6.33;;;5.73;;
59492;SDS011;45497;43.996;22.876;2022-07-29T15:16:49;6.07;;;5.50;;
59492;SDS011;45497;43.996;22.876;2022-07-29T15:19:15;5.93;;;5.43;;
59492;SDS011;45497;43.996;22.876;2022-07-29T15:21:40;6.17;;;5.57;;
59492;SDS011;45497;43.996;22.876;2022-07-29T15:24:06;6.07;;;5.50;;
59492;SDS011;45497;43.996;22.876;2022-07-29T15:26:32;6.87;;;5.47;;
59492;SDS011;45497;43.996;22.876;2022-07-29T15:28:57;7.60;;;5.93;;
59492;SDS011;45497;43.996;22.876;2022-07-29T15:31:23;8.07;;;5.90;;
59492;SDS011;45497;43.996;22.876;2022-07-29T15:33:48;7.25;;;5.68;;
59492;SDS011;45497;43.996;22.876;2022-07-29T15:36:14;6.28;;;5.68;;
59492;SDS011;45497;43.996;22.876;2022-07-29T15:38:39;6.72;;;5.88;;
59492;SDS011;45497;43.996;22.876;2022-07-29T15:41:05;7.18;;;5.63;;
59492;SDS011;45497;43.996;22.876;2022-07-29T15:43:32;6.65;;;5.93;;
59492;SDS011;45497;43.996;22.876;2022-07-29T15:45:59;7.63;;;5.90;;